sensor_id;sensor_type;location;lat;lon;timestamp;pressure;altitude;pressure_sealevel;temperature;humidity
17450;BME280;8842;51.244;7.102;2022-08-21T00:03:46;99567.80;;;16.42;100.00
17450;BME280;8842;51.244;7.102;2022-08-21T00:14:04;99547.49;;;16.26;100.00
17450;BME280;8842;51.244;7.102;2022-08-21T00:24:21;99539.91;;;16.22;100.00
17450;BME280;8842;51.244;7.102;2022-08-21T00:34:37;99536.00;;;16.16;100.00
17450;BME280;8842;51.244;7.102;2022-08-21T00:44:53;99526.56;;;16.08;100.00
17450;BME280;8842;51.244;7.102;2022-08-21T00:55:11;99522.89;;;15.82;100.00
17450;BME280;8842;51.244;7.102;2022-08-21T01:05:29;99531.67;;;15.88;100.00
17450;BME280;8842;51.244;7.102;2022-08-21T01:15:47;99525.75;;;15.84;100.00
17450;BME280;8842;51.244;7.102;2022-08-21T01:26:21;99534.84;;;16.19;100.00
17450;BME280;8842;51.244;7.102;2022-08-21T01:36:39;99531.08;;;16.25;100.00
17450;BME280;8842;51.244;7.102;2022-08-21T01:46:55;99532.85;;;16.34;100.00
17450;BME280;8842;51.244;7.102;2022-08-21T01:57:13;99519.41;;;16.30;100.00
17450;BME280;8842;51.244;7.102;2022-08-21T02:07:35;99522.23;;;16.11;100.00
17450;BME280;8842;51.244;7.102;2022-08-21T02:17:53;99513.01;;;16.10;100.00
17450;BME280;8842;51.244;7.102;2022-08-21T02:28:11;99510.08;;;16.03;100.00
17450;BME280;8842;51.244;7.102;2022-08-21T02:38:31;99505.44;;;15.78;100.00
17450;BME280;8842;51.244;7.102;2022-08-21T02:48:48;99498.19;;;15.88;100.00
17450;BME280;8842;51.244;7.102;2022-08-21T02:53:53;99500.98;;;15.69;100.00
17450;BME280;8842;51.244;7.102;2022-08-21T03:04:08;99505.84;;;15.69;100.00
17450;BME280;8842;51.244;7.102;2022-08-21T03:14:24;99506.37;;;15.73;100.00
17450;BME280;8842;51.244;7.102;2022-08-21T03:24:41;99502.39;;;15.77;100.00
17450;BME280;8842;51.244;7.102;2022-08-21T03:34:57;99491.94;;;15.70;100.00
17450;BME280;8842;51.244;7.102;2022-08-21T03:50:25;99502.31;;;15.69;100.00
17450;BME280;8842;51.244;7.102;2022-08-21T04:00:42;99501.61;;;15.53;100.00
17450;BME280;8842;51.244;7.102;2022-08-21T04:10:58;99504.59;;;15.37;100.00
17450;BME280;8842;51.244;7.102;2022-08-21T04:21:15;99517.48;;;15.28;100.00
17450;BME280;8842;51.244;7.102;2022-08-21T04:31:30;99522.28;;;15.15;100.00
17450;BME280;8842;51.244;7.102;2022-08-21T04:41:46;99515.02;;;14.98;100.00
17450;BME280;8842;51.244;7.102;2022-08-21T04:52:03;99521.23;;;14.89;100.00
17450;BME280;8842;51.244;7.102;2022-08-21T05:02:20;99519.89;;;14.89;100.00
17450;BME280;8842;51.244;7.102;2022-08-21T05:12:40;99525.23;;;14.98;100.00
17450;BME280;8842;51.244;7.102;2022-08-21T05:22:57;99540.66;;;14.91;100.00
17450;BME280;8842;51.244;7.102;2022-08-21T05:33:13;99542.39;;;14.96;100.00
17450;BME280;8842;51.244;7.102;2022-08-21T05:43:29;99555.86;;;15.23;100.00
17450;BME280;8842;51.244;7.102;2022-08-21T05:53:45;99553.13;;;15.51;100.00
17450;BME280;8842;51.244;7.102;2022-08-21T06:04:02;99556.81;;;15.77;100.00
17450;BME280;8842;51.244;7.102;2022-08-21T06:09:06;99558.86;;;15.93;100.00
17450;BME280;8842;51.244;7.102;2022-08-21T06:19:22;99544.81;;;16.26;100.00
17450;BME280;8842;51.244;7.102;2022-08-21T06:29:38;99535.65;;;16.60;100.00
17450;BME280;8842;51.244;7.102;2022-08-21T06:39:54;99531.71;;;16.89;100.00
17450;BME280;8842;51.244;7.102;2022-08-21T06:55:22;99545.77;;;17.34;100.00
17450;BME280;8842;51.244;7.102;2022-08-21T07:05:39;99557.39;;;17.64;100.00
17450;BME280;8842;51.244;7.102;2022-08-21T07:15:55;99552.68;;;17.96;100.00
17450;BME280;8842;51.244;7.102;2022-08-21T07:26:20;99544.60;;;18.38;100.00
17450;BME280;8842;51.244;7.102;2022-08-21T07:41:48;99551.73;;;18.99;100.00
17450;BME280;8842;51.244;7.102;2022-08-21T07:46:52;99553.88;;;19.23;99.76
17450;BME280;8842;51.244;7.102;2022-08-21T08:12:56;99550.02;;;20.35;87.54
17450;BME280;8842;51.244;7.102;2022-08-21T08:28:24;99542.65;;;21.19;81.48
17450;BME280;8842;51.244;7.102;2022-08-21T08:38:40;99551.33;;;21.62;79.20
17450;BME280;8842;51.244;7.102;2022-08-21T08:49:06;99536.54;;;22.48;75.27
17450;BME280;8842;51.244;7.102;2022-08-21T09:04:39;99537.25;;;22.71;72.50
17450;BME280;8842;51.244;7.102;2022-08-21T09:20:22;99528.33;;;25.01;64.25
17450;BME280;8842;51.244;7.102;2022-08-21T09:41:08;99511.31;;;25.29;58.75
17450;BME280;8842;51.244;7.102;2022-08-21T09:51:26;99505.35;;;24.54;61.50
17450;BME280;8842;51.244;7.102;2022-08-21T09:56:34;99496.59;;;24.52;61.83
17450;BME280;8842;51.244;7.102;2022-08-21T10:07:12;99489.70;;;24.56;61.39
17450;BME280;8842;51.244;7.102;2022-08-21T10:17:34;99486.09;;;25.18;64.08
17450;BME280;8842;51.244;7.102;2022-08-21T10:27:57;99480.45;;;25.00;60.05
17450;BME280;8842;51.244;7.102;2022-08-21T10:44:04;99471.12;;;25.58;56.95
17450;BME280;8842;51.244;7.102;2022-08-21T10:59:38;99458.28;;;26.59;54.37
17450;BME280;8842;51.244;7.102;2022-08-21T11:10:04;99453.61;;;25.91;54.53
17450;BME280;8842;51.244;7.102;2022-08-21T11:20:28;99455.22;;;25.55;54.95
17450;BME280;8842;51.244;7.102;2022-08-21T11:30:50;99451.59;;;25.12;57.38
17450;BME280;8842;51.244;7.102;2022-08-21T11:46:33;99443.04;;;25.02;58.29
17450;BME280;8842;51.244;7.102;2022-08-21T11:56:51;99449.20;;;25.00;58.21
17450;BME280;8842;51.244;7.102;2022-08-21T12:17:39;99433.61;;;24.98;54.58
17450;BME280;8842;51.244;7.102;2022-08-21T12:28:07;99431.55;;;24.87;55.70
17450;BME280;8842;51.244;7.102;2022-08-21T12:49:13;99437.27;;;24.62;57.78
17450;BME280;8842;51.244;7.102;2022-08-21T12:59:20;99435.20;;;24.84;56.38
17450;BME280;8842;51.244;7.102;2022-08-21T13:09:36;99431.44;;;24.91;54.60
17450;BME280;8842;51.244;7.102;2022-08-21T13:19:57;99421.21;;;24.80;52.91
17450;BME280;8842;51.244;7.102;2022-08-21T13:30:17;99413.35;;;24.75;54.16
17450;BME280;8842;51.244;7.102;2022-08-21T13:45:48;99414.80;;;25.03;55.99
17450;BME280;8842;51.244;7.102;2022-08-21T13:50:53;99409.97;;;25.12;53.60
17450;BME280;8842;51.244;7.102;2022-08-21T13:55:59;99405.08;;;25.11;57.04
17450;BME280;8842;51.244;7.102;2022-08-21T14:01:03;99408.95;;;25.13;55.72
17450;BME280;8842;51.244;7.102;2022-08-21T14:06:16;99409.25;;;25.20;55.93
17450;BME280;8842;51.244;7.102;2022-08-21T14:11:21;99405.17;;;25.14;55.06
17450;BME280;8842;51.244;7.102;2022-08-21T14:21:40;99395.26;;;24.97;54.69
17450;BME280;8842;51.244;7.102;2022-08-21T14:31:59;99394.14;;;24.89;55.74
17450;BME280;8842;51.244;7.102;2022-08-21T14:42:18;99388.55;;;25.00;55.56
17450;BME280;8842;51.244;7.102;2022-08-21T14:52:35;99388.98;;;24.97;54.73
17450;BME280;8842;51.244;7.102;2022-08-21T15:08:04;99371.64;;;24.98;51.33
17450;BME280;8842;51.244;7.102;2022-08-21T15:13:09;99366.39;;;25.03;53.25
17450;BME280;8842;51.244;7.102;2022-08-21T15:23:25;99374.69;;;24.86;53.65
17450;BME280;8842;51.244;7.102;2022-08-21T15:33:41;99365.39;;;24.84;54.87
17450;BME280;8842;51.244;7.102;2022-08-21T15:43:57;99362.03;;;24.82;54.39
17450;BME280;8842;51.244;7.102;2022-08-21T15:54:13;99359.63;;;24.57;57.20
17450;BME280;8842;51.244;7.102;2022-08-21T16:04:31;99359.52;;;24.48;56.86
17450;BME280;8842;51.244;7.102;2022-08-21T16:09:36;99362.66;;;24.45;57.02
17450;BME280;8842;51.244;7.102;2022-08-21T16:19:51;99357.64;;;24.42;56.21
17450;BME280;8842;51.244;7.102;2022-08-21T16:30:10;99353.36;;;24.31;55.24
17450;BME280;8842;51.244;7.102;2022-08-21T16:40:28;99358.57;;;24.19;56.99
17450;BME280;8842;51.244;7.102;2022-08-21T16:50:44;99353.53;;;24.10;57.69
17450;BME280;8842;51.244;7.102;2022-08-21T17:01:03;99350.28;;;24.04;57.67
17450;BME280;8842;51.244;7.102;2022-08-21T17:11:25;99349.91;;;23.83;59.02
17450;BME280;8842;51.244;7.102;2022-08-21T17:21:41;99354.99;;;23.69;59.64
17450;BME280;8842;51.244;7.102;2022-08-21T17:31:58;99357.56;;;23.60;59.70
17450;BME280;8842;51.244;7.102;2022-08-21T17:42:14;99357.47;;;23.64;59.93
17450;BME280;8842;51.244;7.102;2022-08-21T17:52:30;99362.98;;;23.60;60.42
17450;BME280;8842;51.244;7.102;2022-08-21T17:57:46;99364.70;;;23.44;60.27
17450;BME280;8842;51.244;7.102;2022-08-21T18:08:11;99364.97;;;23.38;58.56
17450;BME280;8842;51.244;7.102;2022-08-21T18:18:40;99375.11;;;23.13;59.26
17450;BME280;8842;51.244;7.102;2022-08-21T18:28:50;99374.79;;;22.78;60.60
17450;BME280;8842;51.244;7.102;2022-08-21T18:33:56;99377.03;;;22.57;60.84
17450;BME280;8842;51.244;7.102;2022-08-21T18:49:28;99383.28;;;22.16;62.09
17450;BME280;8842;51.244;7.102;2022-08-21T18:59:43;99385.58;;;21.87;63.46
17450;BME280;8842;51.244;7.102;2022-08-21T19:10:10;99392.58;;;21.56;64.61
17450;BME280;8842;51.244;7.102;2022-08-21T19:15:17;99404.48;;;21.37;64.97
17450;BME280;8842;51.244;7.102;2022-08-21T19:20:25;99404.49;;;21.22;65.62
17450;BME280;8842;51.244;7.102;2022-08-21T19:30:43;99412.67;;;21.14;66.66
17450;BME280;8842;51.244;7.102;2022-08-21T19:41:00;99410.34;;;20.97;68.78
17450;BME280;8842;51.244;7.102;2022-08-21T19:51:17;99412.31;;;20.84;69.57
17450;BME280;8842;51.244;7.102;2022-08-21T20:01:35;99412.80;;;20.69;72.26
17450;BME280;8842;51.244;7.102;2022-08-21T20:11:53;99416.38;;;20.47;71.14
17450;BME280;8842;51.244;7.102;2022-08-21T20:22:12;99426.23;;;20.55;70.29
17450;BME280;8842;51.244;7.102;2022-08-21T20:37:43;99419.07;;;20.47;70.75
17450;BME280;8842;51.244;7.102;2022-08-21T20:48:04;99418.68;;;20.32;71.88
17450;BME280;8842;51.244;7.102;2022-08-21T20:58:32;99418.90;;;20.26;73.71
17450;BME280;8842;51.244;7.102;2022-08-21T21:03:40;99422.09;;;20.26;73.91
17450;BME280;8842;51.244;7.102;2022-08-21T21:08:49;99414.81;;;20.30;73.56
17450;BME280;8842;51.244;7.102;2022-08-21T21:19:11;99414.86;;;20.26;73.73
17450;BME280;8842;51.244;7.102;2022-08-21T21:29:30;99405.78;;;20.19;74.15
17450;BME280;8842;51.244;7.102;2022-08-21T21:39:52;99411.72;;;20.11;74.28
17450;BME280;8842;51.244;7.102;2022-08-21T21:50:35;99418.17;;;20.06;74.80
17450;BME280;8842;51.244;7.102;2022-08-21T21:55:59;99423.03;;;20.14;74.45
17450;BME280;8842;51.244;7.102;2022-08-21T22:11:35;99426.68;;;20.21;75.48
17450;BME280;8842;51.244;7.102;2022-08-21T22:21:58;99426.62;;;20.03;77.89
17450;BME280;8842;51.244;7.102;2022-08-21T22:32:21;99421.16;;;20.11;79.95
17450;BME280;8842;51.244;7.102;2022-08-21T22:37:32;99416.97;;;20.12;80.09
17450;BME280;8842;51.244;7.102;2022-08-21T22:47:50;99423.39;;;20.07;81.79
17450;BME280;8842;51.244;7.102;2022-08-21T22:52:56;99422.90;;;20.04;83.21
17450;BME280;8842;51.244;7.102;2022-08-21T23:03:28;99426.14;;;20.26;82.47
17450;BME280;8842;51.244;7.102;2022-08-21T23:13:49;99422.59;;;20.25;83.30
17450;BME280;8842;51.244;7.102;2022-08-21T23:34:44;99423.83;;;19.88;86.69
17450;BME280;8842;51.244;7.102;2022-08-21T23:39:57;99420.81;;;19.87;86.78
17450;BME280;8842;51.244;7.102;2022-08-21T23:50:23;99412.14;;;19.69;88.30
